Gilgit Weather



Gilgit's Current Weather

Temprature -9.88o light snow

light snow

Rain: 0 %

Min Temprature-9.88o
Max Temprature-9.88o
Humidity85
Wind Speed1.93 m/h
Sun Rise07:03:25
Sun Set16:49:13
Current Time: 12-Dec-2019 01:26:45
Lat/Lon: 35.92, 74.31




Gilgit's Geo Location



Gilgit's Weather Forecast

Time Overall Temp Min Temp Max Temp Humidity Wind Speed Rain
12-Dec-2019 (Thu)
02:00:00 light snow -9.880 -9.880 -9.880 85 1.93 m/h 0 %
05:00:00 light snow -10.890 -10.890 -10.890 75 1.82 m/h 0 %
08:00:00 overcast clouds -10.560 -10.560 -10.560 69 1.72 m/h 0 %
11:00:00 overcast clouds -8.340 -8.340 -8.340 83 1.36 m/h 0 %
14:00:00 overcast clouds -6.860 -6.860 -6.860 73 1.22 m/h 0 %
17:00:00 overcast clouds -10.000 -10.000 -10.000 75 1.78 m/h 0 %
20:00:00 overcast clouds -10.740 -10.740 -10.740 60 0.94 m/h 0 %
23:00:00 overcast clouds -10.040 -10.040 -10.040 60 0.93 m/h 0 %
13-Dec-2019 (Fri)
02:00:00 overcast clouds -10.700 -10.700 -10.700 64 0.77 m/h 0 %
05:00:00 overcast clouds -12.250 -12.250 -12.250 74 0.66 m/h 0 %
08:00:00 overcast clouds -11.880 -11.880 -11.880 78 0.71 m/h 0 %
11:00:00 overcast clouds -9.920 -9.920 -9.920 79 0.92 m/h 0 %
14:00:00 light snow -7.830 -7.830 -7.830 82 1.38 m/h 0 %
17:00:00 light snow -10.950 -10.950 -10.950 83 0.78 m/h 0 %
20:00:00 overcast clouds -11.040 -11.040 -11.040 77 0.74 m/h 0 %
23:00:00 light snow -10.120 -10.120 -10.120 88 0.59 m/h 0 %
14-Dec-2019 (Sat)
02:00:00 light snow -11.380 -11.380 -11.380 88 1.1 m/h 0 %
05:00:00 light snow -12.230 -12.230 -12.230 85 1.47 m/h 0 %
08:00:00 broken clouds -11.880 -11.880 -11.880 82 1.52 m/h 0 %
11:00:00 light snow -8.750 -8.750 -8.750 85 1.62 m/h 0 %
14:00:00 light snow -7.980 -7.980 -7.980 82 1.01 m/h 0 %
17:00:00 light snow -11.240 -11.240 -11.240 78 1.81 m/h 0 %
20:00:00 light snow -11.500 -11.500 -11.500 84 2.22 m/h 0 %
23:00:00 light snow -11.220 -11.220 -11.220 91 1.5 m/h 0 %
15-Dec-2019 (Sun)
02:00:00 light snow -12.210 -12.210 -12.210 92 1.07 m/h 0 %
05:00:00 light snow -12.870 -12.870 -12.870 92 1.13 m/h 0 %
08:00:00 light snow -12.660 -12.660 -12.660 88 0.66 m/h 0 %
11:00:00 light snow -10.640 -10.640 -10.640 83 1.25 m/h 0 %
14:00:00 broken clouds -9.940 -9.940 -9.940 82 1.12 m/h 0 %
17:00:00 scattered clouds -14.260 -14.260 -14.260 78 2.01 m/h 0 %
20:00:00 scattered clouds -14.310 -14.310 -14.310 68 1.57 m/h 0 %
23:00:00 broken clouds -14.290 -14.290 -14.290 76 1.22 m/h 0 %
16-Dec-2019 (Mon)
02:00:00 light snow -14.970 -14.970 -14.970 82 1.11 m/h 0 %
05:00:00 light snow -16.230 -16.230 -16.230 84 0.86 m/h 0 %
08:00:00 overcast clouds -16.380 -16.380 -16.380 74 1.47 m/h 0 %
11:00:00 overcast clouds -13.170 -13.170 -13.170 70 1.84 m/h 0 %
14:00:00 broken clouds -12.520 -12.520 -12.520 78 1.46 m/h 0 %
17:00:00 scattered clouds -17.040 -17.040 -17.040 81 1.36 m/h 0 %
20:00:00 clear sky -17.370 -17.370 -17.370 59 1.9 m/h 0 %
23:00:00 clear sky -18.230 -18.230 -18.230 53 1.84 m/h 0 %

Famous Cities (61)